sensor_id;sensor_type;location;lat;lon;timestamp;P1;durP1;ratioP1;P2;durP2;ratioP2
19255;SDS011;9762;52.490;13.410;2023-02-15T00:01:04;26.73;;;20.23;;
19255;SDS011;9762;52.490;13.410;2023-02-15T00:03:34;26.37;;;19.97;;
19255;SDS011;9762;52.490;13.410;2023-02-15T00:06:00;24.50;;;19.10;;
19255;SDS011;9762;52.490;13.410;2023-02-15T00:08:25;25.03;;;18.30;;
19255;SDS011;9762;52.490;13.410;2023-02-15T00:10:51;24.60;;;19.83;;
19255;SDS011;9762;52.490;13.410;2023-02-15T00:13:17;25.93;;;20.87;;
19255;SDS011;9762;52.490;13.410;2023-02-15T00:15:43;24.57;;;19.73;;
19255;SDS011;9762;52.490;13.410;2023-02-15T00:18:08;24.20;;;18.43;;
19255;SDS011;9762;52.490;13.410;2023-02-15T00:20:34;25.10;;;20.00;;
19255;SDS011;9762;52.490;13.410;2023-02-15T00:22:59;25.10;;;19.13;;
19255;SDS011;9762;52.490;13.410;2023-02-15T00:25:25;26.27;;;20.17;;
19255;SDS011;9762;52.490;13.410;2023-02-15T00:27:51;25.87;;;20.70;;
19255;SDS011;9762;52.490;13.410;2023-02-15T00:30:16;24.57;;;19.73;;
19255;SDS011;9762;52.490;13.410;2023-02-15T00:32:42;28.03;;;21.23;;
19255;SDS011;9762;52.490;13.410;2023-02-15T00:35:07;26.47;;;21.13;;
19255;SDS011;9762;52.490;13.410;2023-02-15T00:37:34;27.70;;;21.53;;
19255;SDS011;9762;52.490;13.410;2023-02-15T00:40:00;26.50;;;20.30;;
19255;SDS011;9762;52.490;13.410;2023-02-15T00:42:26;26.10;;;21.37;;
19255;SDS011;9762;52.490;13.410;2023-02-15T00:44:51;26.30;;;20.67;;
19255;SDS011;9762;52.490;13.410;2023-02-15T00:47:17;26.63;;;21.13;;
19255;SDS011;9762;52.490;13.410;2023-02-15T00:49:42;26.53;;;21.50;;
19255;SDS011;9762;52.490;13.410;2023-02-15T00:52:08;32.60;;;22.43;;
19255;SDS011;9762;52.490;13.410;2023-02-15T00:54:34;27.37;;;21.20;;
19255;SDS011;9762;52.490;13.410;2023-02-15T00:56:59;28.37;;;21.50;;
19255;SDS011;9762;52.490;13.410;2023-02-15T00:59:25;30.03;;;21.50;;
19255;SDS011;9762;52.490;13.410;2023-02-15T01:01:51;28.57;;;22.40;;
19255;SDS011;9762;52.490;13.410;2023-02-15T01:04:16;30.53;;;22.27;;
19255;SDS011;9762;52.490;13.410;2023-02-15T01:06:42;28.63;;;21.73;;
19255;SDS011;9762;52.490;13.410;2023-02-15T01:09:08;29.03;;;23.07;;
19255;SDS011;9762;52.490;13.410;2023-02-15T01:11:33;30.80;;;22.57;;
19255;SDS011;9762;52.490;13.410;2023-02-15T01:13:59;30.40;;;22.93;;
19255;SDS011;9762;52.490;13.410;2023-02-15T01:16:26;29.67;;;21.37;;
19255;SDS011;9762;52.490;13.410;2023-02-15T01:18:53;28.67;;;21.23;;
19255;SDS011;9762;52.490;13.410;2023-02-15T01:21:20;26.87;;;21.07;;
19255;SDS011;9762;52.490;13.410;2023-02-15T01:23:47;32.40;;;22.40;;
19255;SDS011;9762;52.490;13.410;2023-02-15T01:26:14;30.17;;;23.00;;
19255;SDS011;9762;52.490;13.410;2023-02-15T01:28:40;27.90;;;22.17;;
19255;SDS011;9762;52.490;13.410;2023-02-15T01:31:06;30.93;;;22.37;;
19255;SDS011;9762;52.490;13.410;2023-02-15T01:33:37;29.50;;;22.60;;
19255;SDS011;9762;52.490;13.410;2023-02-15T01:36:03;26.70;;;21.63;;
19255;SDS011;9762;52.490;13.410;2023-02-15T01:38:29;28.67;;;21.93;;
19255;SDS011;9762;52.490;13.410;2023-02-15T01:40:55;29.47;;;22.30;;
19255;SDS011;9762;52.490;13.410;2023-02-15T01:43:48;28.80;;;22.17;;
19255;SDS011;9762;52.490;13.410;2023-02-15T01:46:43;28.93;;;22.33;;
19255;SDS011;9762;52.490;13.410;2023-02-15T01:49:16;26.67;;;21.70;;
19255;SDS011;9762;52.490;13.410;2023-02-15T01:51:45;25.13;;;21.67;;
19255;SDS011;9762;52.490;13.410;2023-02-15T01:54:31;34.07;;;23.97;;
19255;SDS011;9762;52.490;13.410;2023-02-15T01:57:02;32.40;;;23.13;;
19255;SDS011;9762;52.490;13.410;2023-02-15T01:59:31;32.17;;;25.20;;
19255;SDS011;9762;52.490;13.410;2023-02-15T02:01:58;28.90;;;22.63;;
19255;SDS011;9762;52.490;13.410;2023-02-15T02:04:33;33.70;;;25.10;;
19255;SDS011;9762;52.490;13.410;2023-02-15T02:07:13;30.50;;;24.03;;
19255;SDS011;9762;52.490;13.410;2023-02-15T02:09:41;34.13;;;25.27;;
19255;SDS011;9762;52.490;13.410;2023-02-15T02:12:07;31.73;;;23.90;;
19255;SDS011;9762;52.490;13.410;2023-02-15T02:14:33;34.27;;;25.70;;
19255;SDS011;9762;52.490;13.410;2023-02-15T02:19:45;33.53;;;25.37;;
19255;SDS011;9762;52.490;13.410;2023-02-15T02:25:51;38.47;;;27.77;;
19255;SDS011;9762;52.490;13.410;2023-02-15T02:28:52;36.03;;;27.33;;
19255;SDS011;9762;52.490;13.410;2023-02-15T02:34:59;37.03;;;28.00;;
19255;SDS011;9762;52.490;13.410;2023-02-15T02:37:43;35.97;;;26.50;;
19255;SDS011;9762;52.490;13.410;2023-02-15T02:40:29;44.17;;;29.70;;
19255;SDS011;9762;52.490;13.410;2023-02-15T02:43:12;38.80;;;29.37;;
19255;SDS011;9762;52.490;13.410;2023-02-15T02:45:51;38.63;;;28.50;;
19255;SDS011;9762;52.490;13.410;2023-02-15T02:48:23;43.37;;;30.67;;
19255;SDS011;9762;52.490;13.410;2023-02-15T02:50:52;46.50;;;31.17;;
19255;SDS011;9762;52.490;13.410;2023-02-15T02:53:17;44.63;;;31.60;;
19255;SDS011;9762;52.490;13.410;2023-02-15T02:55:47;47.30;;;32.60;;
19255;SDS011;9762;52.490;13.410;2023-02-15T02:58:45;55.13;;;34.63;;
19255;SDS011;9762;52.490;13.410;2023-02-15T03:01:15;47.90;;;34.17;;
19255;SDS011;9762;52.490;13.410;2023-02-15T03:03:48;49.13;;;34.40;;
19255;SDS011;9762;52.490;13.410;2023-02-15T03:06:28;50.90;;;35.07;;
19255;SDS011;9762;52.490;13.410;2023-02-15T03:09:03;49.40;;;34.13;;
19255;SDS011;9762;52.490;13.410;2023-02-15T03:11:45;48.80;;;33.90;;
19255;SDS011;9762;52.490;13.410;2023-02-15T03:14:12;44.07;;;32.47;;
19255;SDS011;9762;52.490;13.410;2023-02-15T03:16:39;50.13;;;35.03;;
19255;SDS011;9762;52.490;13.410;2023-02-15T03:19:09;52.43;;;35.50;;
19255;SDS011;9762;52.490;13.410;2023-02-15T03:21:50;48.20;;;32.60;;
19255;SDS011;9762;52.490;13.410;2023-02-15T03:25:30;45.93;;;32.67;;
19255;SDS011;9762;52.490;13.410;2023-02-15T03:27:39;47.30;;;33.53;;
19255;SDS011;9762;52.490;13.410;2023-02-15T03:30:09;48.73;;;33.47;;
19255;SDS011;9762;52.490;13.410;2023-02-15T03:32:36;48.67;;;33.87;;
19255;SDS011;9762;52.490;13.410;2023-02-15T03:35:04;48.33;;;31.77;;
19255;SDS011;9762;52.490;13.410;2023-02-15T03:37:32;48.47;;;32.90;;
19255;SDS011;9762;52.490;13.410;2023-02-15T03:43:04;45.77;;;32.23;;
19255;SDS011;9762;52.490;13.410;2023-02-15T03:45:37;46.90;;;33.77;;
19255;SDS011;9762;52.490;13.410;2023-02-15T03:48:19;44.83;;;32.53;;
19255;SDS011;9762;52.490;13.410;2023-02-15T03:50:55;45.43;;;31.57;;
19255;SDS011;9762;52.490;13.410;2023-02-15T03:53:44;46.83;;;32.50;;
19255;SDS011;9762;52.490;13.410;2023-02-15T03:56:13;46.67;;;32.13;;
19255;SDS011;9762;52.490;13.410;2023-02-15T03:58:38;45.53;;;31.97;;
19255;SDS011;9762;52.490;13.410;2023-02-15T04:01:25;48.40;;;33.10;;
19255;SDS011;9762;52.490;13.410;2023-02-15T04:04:19;48.17;;;32.73;;
19255;SDS011;9762;52.490;13.410;2023-02-15T04:06:47;49.87;;;33.10;;
19255;SDS011;9762;52.490;13.410;2023-02-15T04:09:13;46.90;;;33.03;;
19255;SDS011;9762;52.490;13.410;2023-02-15T04:11:57;50.37;;;32.33;;
19255;SDS011;9762;52.490;13.410;2023-02-15T04:14:23;45.97;;;32.03;;
19255;SDS011;9762;52.490;13.410;2023-02-15T04:17:08;45.57;;;33.40;;
19255;SDS011;9762;52.490;13.410;2023-02-15T04:19:34;45.70;;;30.80;;
19255;SDS011;9762;52.490;13.410;2023-02-15T04:22:18;46.60;;;32.23;;
19255;SDS011;9762;52.490;13.410;2023-02-15T04:25:03;50.87;;;32.63;;
19255;SDS011;9762;52.490;13.410;2023-02-15T04:27:38;48.67;;;31.97;;
19255;SDS011;9762;52.490;13.410;2023-02-15T04:30:06;45.37;;;31.53;;
19255;SDS011;9762;52.490;13.410;2023-02-15T04:32:33;45.90;;;31.53;;
19255;SDS011;9762;52.490;13.410;2023-02-15T04:34:59;46.13;;;30.57;;
19255;SDS011;9762;52.490;13.410;2023-02-15T04:37:25;45.93;;;31.03;;
19255;SDS011;9762;52.490;13.410;2023-02-15T04:39:51;45.53;;;32.00;;
19255;SDS011;9762;52.490;13.410;2023-02-15T04:42:16;51.87;;;32.20;;
19255;SDS011;9762;52.490;13.410;2023-02-15T04:44:42;44.13;;;30.40;;
19255;SDS011;9762;52.490;13.410;2023-02-15T04:47:08;47.73;;;32.70;;
19255;SDS011;9762;52.490;13.410;2023-02-15T04:49:34;44.93;;;30.67;;
19255;SDS011;9762;52.490;13.410;2023-02-15T04:51:59;46.50;;;31.90;;
19255;SDS011;9762;52.490;13.410;2023-02-15T04:54:25;43.33;;;31.20;;
19255;SDS011;9762;52.490;13.410;2023-02-15T04:56:51;49.57;;;31.70;;
19255;SDS011;9762;52.490;13.410;2023-02-15T04:59:16;45.23;;;31.17;;
19255;SDS011;9762;52.490;13.410;2023-02-15T05:01:42;47.97;;;31.20;;
19255;SDS011;9762;52.490;13.410;2023-02-15T05:04:08;44.97;;;29.87;;
19255;SDS011;9762;52.490;13.410;2023-02-15T05:06:34;45.90;;;31.63;;
19255;SDS011;9762;52.490;13.410;2023-02-15T05:08:59;44.67;;;30.07;;
19255;SDS011;9762;52.490;13.410;2023-02-15T05:11:26;46.97;;;30.77;;
19255;SDS011;9762;52.490;13.410;2023-02-15T05:13:52;44.73;;;29.53;;
19255;SDS011;9762;52.490;13.410;2023-02-15T05:16:18;46.43;;;31.53;;
19255;SDS011;9762;52.490;13.410;2023-02-15T05:18:43;45.90;;;32.10;;
19255;SDS011;9762;52.490;13.410;2023-02-15T05:21:09;42.30;;;29.00;;
19255;SDS011;9762;52.490;13.410;2023-02-15T05:23:35;47.27;;;30.77;;
19255;SDS011;9762;52.490;13.410;2023-02-15T05:26:01;45.13;;;30.67;;
19255;SDS011;9762;52.490;13.410;2023-02-15T05:28:46;50.30;;;31.63;;
19255;SDS011;9762;52.490;13.410;2023-02-15T05:33:39;43.97;;;30.37;;
19255;SDS011;9762;52.490;13.410;2023-02-15T05:36:05;48.10;;;31.17;;
19255;SDS011;9762;52.490;13.410;2023-02-15T05:38:31;51.57;;;32.47;;
19255;SDS011;9762;52.490;13.410;2023-02-15T05:40:57;47.93;;;32.33;;
19255;SDS011;9762;52.490;13.410;2023-02-15T05:43:23;46.97;;;31.27;;
19255;SDS011;9762;52.490;13.410;2023-02-15T05:45:50;50.90;;;32.47;;
19255;SDS011;9762;52.490;13.410;2023-02-15T05:48:17;50.13;;;33.40;;
19255;SDS011;9762;52.490;13.410;2023-02-15T05:50:43;51.40;;;31.40;;
19255;SDS011;9762;52.490;13.410;2023-02-15T05:53:09;56.10;;;34.87;;
19255;SDS011;9762;52.490;13.410;2023-02-15T05:55:39;55.17;;;33.83;;
19255;SDS011;9762;52.490;13.410;2023-02-15T05:58:05;48.60;;;31.73;;
19255;SDS011;9762;52.490;13.410;2023-02-15T06:00:31;49.20;;;32.17;;
19255;SDS011;9762;52.490;13.410;2023-02-15T06:02:57;51.77;;;32.00;;
19255;SDS011;9762;52.490;13.410;2023-02-15T06:05:22;54.10;;;32.97;;
19255;SDS011;9762;52.490;13.410;2023-02-15T06:07:48;55.43;;;33.20;;
19255;SDS011;9762;52.490;13.410;2023-02-15T06:10:14;60.07;;;36.07;;
19255;SDS011;9762;52.490;13.410;2023-02-15T06:12:39;57.57;;;34.30;;
19255;SDS011;9762;52.490;13.410;2023-02-15T06:15:05;55.10;;;33.60;;
19255;SDS011;9762;52.490;13.410;2023-02-15T06:17:31;57.50;;;34.30;;
19255;SDS011;9762;52.490;13.410;2023-02-15T06:19:56;57.87;;;33.50;;
19255;SDS011;9762;52.490;13.410;2023-02-15T06:22:22;57.33;;;35.23;;
19255;SDS011;9762;52.490;13.410;2023-02-15T06:24:48;59.83;;;34.77;;
19255;SDS011;9762;52.490;13.410;2023-02-15T06:27:13;58.73;;;34.93;;
19255;SDS011;9762;52.490;13.410;2023-02-15T06:29:39;58.70;;;35.30;;
19255;SDS011;9762;52.490;13.410;2023-02-15T06:32:05;58.33;;;34.77;;
19255;SDS011;9762;52.490;13.410;2023-02-15T06:34:31;58.87;;;34.40;;
19255;SDS011;9762;52.490;13.410;2023-02-15T06:36:57;54.77;;;34.73;;
19255;SDS011;9762;52.490;13.410;2023-02-15T06:39:22;50.50;;;31.23;;
19255;SDS011;9762;52.490;13.410;2023-02-15T06:41:48;53.83;;;32.53;;
19255;SDS011;9762;52.490;13.410;2023-02-15T06:44:14;58.73;;;34.87;;
19255;SDS011;9762;52.490;13.410;2023-02-15T06:46:39;61.03;;;34.60;;
19255;SDS011;9762;52.490;13.410;2023-02-15T06:49:05;58.40;;;34.67;;
19255;SDS011;9762;52.490;13.410;2023-02-15T06:51:31;94.57;;;52.90;;
19255;SDS011;9762;52.490;13.410;2023-02-15T06:53:56;55.30;;;35.33;;
19255;SDS011;9762;52.490;13.410;2023-02-15T06:56:22;63.83;;;36.90;;
19255;SDS011;9762;52.490;13.410;2023-02-15T06:58:47;59.90;;;34.37;;
19255;SDS011;9762;52.490;13.410;2023-02-15T07:01:14;61.90;;;35.43;;
19255;SDS011;9762;52.490;13.410;2023-02-15T07:03:40;84.17;;;38.03;;
19255;SDS011;9762;52.490;13.410;2023-02-15T07:06:06;62.50;;;34.73;;
19255;SDS011;9762;52.490;13.410;2023-02-15T07:08:33;79.47;;;35.60;;
19255;SDS011;9762;52.490;13.410;2023-02-15T07:11:00;69.00;;;36.13;;
19255;SDS011;9762;52.490;13.410;2023-02-15T07:13:45;64.43;;;39.47;;
19255;SDS011;9762;52.490;13.410;2023-02-15T07:16:11;67.57;;;40.07;;
19255;SDS011;9762;52.490;13.410;2023-02-15T07:18:37;62.80;;;35.83;;
19255;SDS011;9762;52.490;13.410;2023-02-15T07:21:03;57.33;;;33.40;;
19255;SDS011;9762;52.490;13.410;2023-02-15T07:23:32;57.77;;;34.97;;
19255;SDS011;9762;52.490;13.410;2023-02-15T07:25:59;89.17;;;36.17;;
19255;SDS011;9762;52.490;13.410;2023-02-15T07:28:26;64.47;;;33.10;;
19255;SDS011;9762;52.490;13.410;2023-02-15T07:30:52;55.30;;;32.57;;
19255;SDS011;9762;52.490;13.410;2023-02-15T07:33:18;54.13;;;32.97;;
19255;SDS011;9762;52.490;13.410;2023-02-15T07:35:55;69.10;;;42.17;;
19255;SDS011;9762;52.490;13.410;2023-02-15T07:38:23;75.63;;;42.27;;
19255;SDS011;9762;52.490;13.410;2023-02-15T07:40:50;59.43;;;35.33;;
19255;SDS011;9762;52.490;13.410;2023-02-15T07:43:15;54.67;;;33.03;;
19255;SDS011;9762;52.490;13.410;2023-02-15T07:45:41;56.07;;;33.00;;
19255;SDS011;9762;52.490;13.410;2023-02-15T07:48:07;56.67;;;35.03;;
19255;SDS011;9762;52.490;13.410;2023-02-15T07:50:33;59.73;;;34.83;;
19255;SDS011;9762;52.490;13.410;2023-02-15T07:53:00;60.73;;;34.97;;
19255;SDS011;9762;52.490;13.410;2023-02-15T07:55:27;52.17;;;32.27;;
19255;SDS011;9762;52.490;13.410;2023-02-15T07:57:53;62.33;;;32.70;;
19255;SDS011;9762;52.490;13.410;2023-02-15T08:00:21;53.10;;;32.00;;
19255;SDS011;9762;52.490;13.410;2023-02-15T08:02:50;51.47;;;30.70;;
19255;SDS011;9762;52.490;13.410;2023-02-15T08:05:36;51.17;;;31.17;;
19255;SDS011;9762;52.490;13.410;2023-02-15T08:08:02;52.67;;;29.13;;
19255;SDS011;9762;52.490;13.410;2023-02-15T08:10:28;49.20;;;27.83;;
19255;SDS011;9762;52.490;13.410;2023-02-15T08:13:12;54.90;;;29.03;;
19255;SDS011;9762;52.490;13.410;2023-02-15T08:15:38;43.00;;;26.97;;
19255;SDS011;9762;52.490;13.410;2023-02-15T08:18:03;50.63;;;27.80;;
19255;SDS011;9762;52.490;13.410;2023-02-15T08:20:29;39.10;;;26.27;;
19255;SDS011;9762;52.490;13.410;2023-02-15T08:22:55;42.80;;;27.37;;
19255;SDS011;9762;52.490;13.410;2023-02-15T08:25:20;40.00;;;27.07;;
19255;SDS011;9762;52.490;13.410;2023-02-15T08:27:46;43.93;;;27.90;;
19255;SDS011;9762;52.490;13.410;2023-02-15T08:30:12;40.87;;;28.33;;
19255;SDS011;9762;52.490;13.410;2023-02-15T08:32:39;42.13;;;27.97;;
19255;SDS011;9762;52.490;13.410;2023-02-15T08:35:04;48.00;;;27.87;;
19255;SDS011;9762;52.490;13.410;2023-02-15T08:37:30;52.23;;;29.00;;
19255;SDS011;9762;52.490;13.410;2023-02-15T08:39:56;46.67;;;28.63;;
19255;SDS011;9762;52.490;13.410;2023-02-15T08:42:21;48.97;;;28.87;;
19255;SDS011;9762;52.490;13.410;2023-02-15T08:44:47;75.47;;;47.00;;
19255;SDS011;9762;52.490;13.410;2023-02-15T08:47:15;50.93;;;30.63;;
19255;SDS011;9762;52.490;13.410;2023-02-15T08:49:40;50.60;;;31.20;;
19255;SDS011;9762;52.490;13.410;2023-02-15T08:52:06;48.80;;;30.30;;
19255;SDS011;9762;52.490;13.410;2023-02-15T08:54:32;46.63;;;29.57;;
19255;SDS011;9762;52.490;13.410;2023-02-15T08:56:57;47.63;;;27.97;;
19255;SDS011;9762;52.490;13.410;2023-02-15T08:59:23;53.17;;;28.03;;
19255;SDS011;9762;52.490;13.410;2023-02-15T09:01:52;41.47;;;26.17;;
19255;SDS011;9762;52.490;13.410;2023-02-15T09:04:18;50.67;;;29.97;;
19255;SDS011;9762;52.490;13.410;2023-02-15T09:06:45;49.23;;;29.20;;
19255;SDS011;9762;52.490;13.410;2023-02-15T09:09:12;43.77;;;27.43;;
19255;SDS011;9762;52.490;13.410;2023-02-15T09:11:41;40.30;;;26.70;;
19255;SDS011;9762;52.490;13.410;2023-02-15T09:14:27;41.50;;;26.13;;
19255;SDS011;9762;52.490;13.410;2023-02-15T09:16:52;39.10;;;25.20;;
19255;SDS011;9762;52.490;13.410;2023-02-15T09:19:19;37.47;;;25.00;;
19255;SDS011;9762;52.490;13.410;2023-02-15T09:21:46;35.13;;;24.37;;
19255;SDS011;9762;52.490;13.410;2023-02-15T09:24:14;33.73;;;24.67;;
19255;SDS011;9762;52.490;13.410;2023-02-15T09:26:42;38.47;;;25.47;;
19255;SDS011;9762;52.490;13.410;2023-02-15T09:29:09;37.43;;;25.27;;
19255;SDS011;9762;52.490;13.410;2023-02-15T09:31:40;36.77;;;24.73;;
19255;SDS011;9762;52.490;13.410;2023-02-15T09:34:09;35.47;;;24.27;;
19255;SDS011;9762;52.490;13.410;2023-02-15T09:36:37;35.37;;;23.90;;
19255;SDS011;9762;52.490;13.410;2023-02-15T09:39:08;37.30;;;24.10;;
19255;SDS011;9762;52.490;13.410;2023-02-15T09:49:47;52.47;;;33.20;;
19255;SDS011;9762;52.490;13.410;2023-02-15T09:55:20;35.60;;;24.23;;
19255;SDS011;9762;52.490;13.410;2023-02-15T10:00:39;34.33;;;25.17;;
19255;SDS011;9762;52.490;13.410;2023-02-15T10:09:32;31.60;;;22.90;;
19255;SDS011;9762;52.490;13.410;2023-02-15T10:11:39;33.40;;;23.20;;
19255;SDS011;9762;52.490;13.410;2023-02-15T10:14:33;34.47;;;24.37;;
19255;SDS011;9762;52.490;13.410;2023-02-15T10:22:49;30.37;;;22.33;;
19255;SDS011;9762;52.490;13.410;2023-02-15T10:25:51;31.33;;;22.93;;
19255;SDS011;9762;52.490;13.410;2023-02-15T10:33:42;30.17;;;21.97;;
19255;SDS011;9762;52.490;13.410;2023-02-15T10:42:13;26.67;;;21.10;;
19255;SDS011;9762;52.490;13.410;2023-02-15T10:53:17;33.13;;;23.00;;
19255;SDS011;9762;52.490;13.410;2023-02-15T11:01:37;34.33;;;22.80;;
19255;SDS011;9762;52.490;13.410;2023-02-15T11:04:41;30.43;;;22.57;;
19255;SDS011;9762;52.490;13.410;2023-02-15T11:07:15;31.43;;;22.23;;
19255;SDS011;9762;52.490;13.410;2023-02-15T11:09:51;30.40;;;23.00;;
19255;SDS011;9762;52.490;13.410;2023-02-15T11:12:26;30.77;;;23.23;;
19255;SDS011;9762;52.490;13.410;2023-02-15T11:17:48;35.47;;;25.43;;
19255;SDS011;9762;52.490;13.410;2023-02-15T11:22:58;34.00;;;24.40;;
19255;SDS011;9762;52.490;13.410;2023-02-15T11:25:28;38.13;;;24.83;;
19255;SDS011;9762;52.490;13.410;2023-02-15T11:27:59;36.93;;;23.17;;
19255;SDS011;9762;52.490;13.410;2023-02-15T11:30:30;30.93;;;23.13;;
19255;SDS011;9762;52.490;13.410;2023-02-15T11:33:05;30.80;;;22.33;;
19255;SDS011;9762;52.490;13.410;2023-02-15T11:35:50;36.30;;;23.37;;
19255;SDS011;9762;52.490;13.410;2023-02-15T11:38:31;26.00;;;20.77;;
19255;SDS011;9762;52.490;13.410;2023-02-15T11:41:05;33.73;;;22.80;;
19255;SDS011;9762;52.490;13.410;2023-02-15T11:43:44;28.83;;;21.63;;
19255;SDS011;9762;52.490;13.410;2023-02-15T11:46:16;45.83;;;28.80;;
19255;SDS011;9762;52.490;13.410;2023-02-15T11:48:43;42.07;;;25.87;;
19255;SDS011;9762;52.490;13.410;2023-02-15T11:51:11;31.73;;;23.70;;
19255;SDS011;9762;52.490;13.410;2023-02-15T11:53:41;29.87;;;22.83;;
19255;SDS011;9762;52.490;13.410;2023-02-15T11:56:15;31.27;;;22.80;;
19255;SDS011;9762;52.490;13.410;2023-02-15T11:58:44;33.57;;;22.07;;
19255;SDS011;9762;52.490;13.410;2023-02-15T12:01:30;29.77;;;21.63;;
19255;SDS011;9762;52.490;13.410;2023-02-15T12:04:01;28.87;;;21.63;;
19255;SDS011;9762;52.490;13.410;2023-02-15T12:06:33;26.97;;;21.73;;
19255;SDS011;9762;52.490;13.410;2023-02-15T12:12:45;27.03;;;20.53;;
19255;SDS011;9762;52.490;13.410;2023-02-15T12:14:58;29.50;;;22.00;;
19255;SDS011;9762;52.490;13.410;2023-02-15T12:17:29;27.83;;;20.47;;
19255;SDS011;9762;52.490;13.410;2023-02-15T12:20:00;34.77;;;22.07;;
19255;SDS011;9762;52.490;13.410;2023-02-15T12:22:32;30.53;;;20.13;;
19255;SDS011;9762;52.490;13.410;2023-02-15T12:25:03;28.70;;;22.13;;
19255;SDS011;9762;52.490;13.410;2023-02-15T12:27:44;27.90;;;21.33;;
19255;SDS011;9762;52.490;13.410;2023-02-15T12:32:53;27.97;;;21.60;;
19255;SDS011;9762;52.490;13.410;2023-02-15T12:37:56;29.83;;;20.63;;
19255;SDS011;9762;52.490;13.410;2023-02-15T12:40:31;27.47;;;21.30;;
19255;SDS011;9762;52.490;13.410;2023-02-15T12:42:58;29.87;;;21.73;;
19255;SDS011;9762;52.490;13.410;2023-02-15T12:45:31;28.30;;;21.43;;
19255;SDS011;9762;52.490;13.410;2023-02-15T12:55:53;29.40;;;20.87;;
19255;SDS011;9762;52.490;13.410;2023-02-15T12:58:24;27.53;;;20.77;;
19255;SDS011;9762;52.490;13.410;2023-02-15T13:03:39;26.17;;;20.80;;
19255;SDS011;9762;52.490;13.410;2023-02-15T13:06:30;24.10;;;19.23;;
19255;SDS011;9762;52.490;13.410;2023-02-15T13:09:16;30.23;;;19.50;;
19255;SDS011;9762;52.490;13.410;2023-02-15T13:11:45;27.53;;;20.30;;
19255;SDS011;9762;52.490;13.410;2023-02-15T13:14:25;27.70;;;21.37;;
19255;SDS011;9762;52.490;13.410;2023-02-15T13:16:57;30.83;;;24.57;;
19255;SDS011;9762;52.490;13.410;2023-02-15T13:22:16;25.13;;;19.70;;
19255;SDS011;9762;52.490;13.410;2023-02-15T13:24:46;29.03;;;19.53;;
19255;SDS011;9762;52.490;13.410;2023-02-15T13:27:15;24.90;;;19.93;;
19255;SDS011;9762;52.490;13.410;2023-02-15T13:29:44;23.40;;;18.63;;
19255;SDS011;9762;52.490;13.410;2023-02-15T13:35:01;26.07;;;19.10;;
19255;SDS011;9762;52.490;13.410;2023-02-15T13:43:06;68.50;;;45.13;;
19255;SDS011;9762;52.490;13.410;2023-02-15T13:48:38;25.03;;;19.70;;
19255;SDS011;9762;52.490;13.410;2023-02-15T13:59:00;23.80;;;19.40;;
19255;SDS011;9762;52.490;13.410;2023-02-15T14:09:50;28.20;;;18.57;;
19255;SDS011;9762;52.490;13.410;2023-02-15T14:12:27;21.30;;;18.17;;
19255;SDS011;9762;52.490;13.410;2023-02-15T14:15:20;25.77;;;20.07;;
19255;SDS011;9762;52.490;13.410;2023-02-15T14:24:09;22.77;;;18.50;;
19255;SDS011;9762;52.490;13.410;2023-02-15T14:30:31;21.63;;;17.40;;
19255;SDS011;9762;52.490;13.410;2023-02-15T14:32:44;21.73;;;18.07;;
19255;SDS011;9762;52.490;13.410;2023-02-15T14:35:20;23.07;;;18.17;;
19255;SDS011;9762;52.490;13.410;2023-02-15T14:48:47;21.90;;;17.53;;
19255;SDS011;9762;52.490;13.410;2023-02-15T14:54:03;18.47;;;16.37;;
19255;SDS011;9762;52.490;13.410;2023-02-15T14:56:28;20.10;;;16.20;;
19255;SDS011;9762;52.490;13.410;2023-02-15T14:58:55;22.13;;;16.63;;
19255;SDS011;9762;52.490;13.410;2023-02-15T15:01:26;21.93;;;17.37;;
19255;SDS011;9762;52.490;13.410;2023-02-15T15:03:55;19.13;;;16.60;;
19255;SDS011;9762;52.490;13.410;2023-02-15T15:06:31;26.70;;;18.90;;
19255;SDS011;9762;52.490;13.410;2023-02-15T15:09:12;23.27;;;18.13;;
19255;SDS011;9762;52.490;13.410;2023-02-15T15:11:50;22.33;;;16.07;;
19255;SDS011;9762;52.490;13.410;2023-02-15T15:17:01;22.33;;;17.87;;
19255;SDS011;9762;52.490;13.410;2023-02-15T15:27:47;22.10;;;16.50;;
19255;SDS011;9762;52.490;13.410;2023-02-15T15:32:50;25.17;;;18.17;;
19255;SDS011;9762;52.490;13.410;2023-02-15T15:41:39;20.87;;;15.73;;
19255;SDS011;9762;52.490;13.410;2023-02-15T15:50:10;27.00;;;17.87;;
19255;SDS011;9762;52.490;13.410;2023-02-15T15:52:43;22.33;;;17.00;;
19255;SDS011;9762;52.490;13.410;2023-02-15T15:55:18;20.37;;;16.20;;
19255;SDS011;9762;52.490;13.410;2023-02-15T15:57:47;25.13;;;16.27;;
19255;SDS011;9762;52.490;13.410;2023-02-15T16:03:14;20.33;;;15.80;;
19255;SDS011;9762;52.490;13.410;2023-02-15T16:05:45;18.63;;;16.07;;
19255;SDS011;9762;52.490;13.410;2023-02-15T16:08:10;22.20;;;17.03;;
19255;SDS011;9762;52.490;13.410;2023-02-15T16:10:36;20.10;;;16.20;;
19255;SDS011;9762;52.490;13.410;2023-02-15T16:13:03;21.07;;;16.17;;
19255;SDS011;9762;52.490;13.410;2023-02-15T16:15:34;18.50;;;15.27;;
19255;SDS011;9762;52.490;13.410;2023-02-15T16:18:10;24.37;;;16.70;;
19255;SDS011;9762;52.490;13.410;2023-02-15T16:20:41;95.40;;;61.10;;
19255;SDS011;9762;52.490;13.410;2023-02-15T16:28:32;25.07;;;16.37;;
19255;SDS011;9762;52.490;13.410;2023-02-15T16:31:05;23.67;;;17.53;;
19255;SDS011;9762;52.490;13.410;2023-02-15T16:33:39;28.97;;;20.10;;
19255;SDS011;9762;52.490;13.410;2023-02-15T16:36:10;23.20;;;17.60;;
19255;SDS011;9762;52.490;13.410;2023-02-15T16:41:30;24.83;;;16.67;;
19255;SDS011;9762;52.490;13.410;2023-02-15T16:43:56;19.60;;;15.73;;
19255;SDS011;9762;52.490;13.410;2023-02-15T16:46:28;142.20;;;84.33;;
19255;SDS011;9762;52.490;13.410;2023-02-15T16:49:05;29.97;;;21.77;;
19255;SDS011;9762;52.490;13.410;2023-02-15T16:51:39;26.70;;;19.13;;
19255;SDS011;9762;52.490;13.410;2023-02-15T16:54:14;23.63;;;17.87;;
19255;SDS011;9762;52.490;13.410;2023-02-15T16:56:44;20.47;;;16.63;;
19255;SDS011;9762;52.490;13.410;2023-02-15T16:59:17;23.77;;;16.37;;
19255;SDS011;9762;52.490;13.410;2023-02-15T17:01:58;21.73;;;16.73;;
19255;SDS011;9762;52.490;13.410;2023-02-15T17:04:29;22.27;;;16.67;;
19255;SDS011;9762;52.490;13.410;2023-02-15T17:07:03;21.57;;;16.37;;
19255;SDS011;9762;52.490;13.410;2023-02-15T17:09:31;20.67;;;15.07;;
19255;SDS011;9762;52.490;13.410;2023-02-15T17:11:58;21.93;;;15.77;;
19255;SDS011;9762;52.490;13.410;2023-02-15T17:14:28;19.60;;;16.17;;
19255;SDS011;9762;52.490;13.410;2023-02-15T17:19:27;19.97;;;14.57;;
19255;SDS011;9762;52.490;13.410;2023-02-15T17:21:57;21.23;;;16.00;;
19255;SDS011;9762;52.490;13.410;2023-02-15T17:24:28;19.73;;;15.60;;
19255;SDS011;9762;52.490;13.410;2023-02-15T17:27:11;19.30;;;15.80;;
19255;SDS011;9762;52.490;13.410;2023-02-15T17:29:46;22.07;;;16.27;;
19255;SDS011;9762;52.490;13.410;2023-02-15T17:32:18;23.23;;;15.80;;
19255;SDS011;9762;52.490;13.410;2023-02-15T17:34:47;22.70;;;16.33;;
19255;SDS011;9762;52.490;13.410;2023-02-15T17:40:17;20.57;;;16.40;;
19255;SDS011;9762;52.490;13.410;2023-02-15T17:42:46;22.53;;;16.50;;
19255;SDS011;9762;52.490;13.410;2023-02-15T17:45:12;24.23;;;16.43;;
19255;SDS011;9762;52.490;13.410;2023-02-15T17:47:38;22.17;;;16.63;;